Time;durP1;ratioP1;P1;durP2;ratioP2;P2;SDS_P1;SDS_P2;PMS_P1;PMS_P2;Temp;Humidity;BMP_temperature;BMP_pressure;BME280_temperature;BME280_humidity;BME280_pressure;Samples;Min_cycle;Max_cycle;Signal;HPM_P1;HPM_P2
2021/04/06 00:00:00;;;;;;;0.20;0.20;;;;;;;1.31;72.44;99645.44;1791398;80;21165;-42
2021/04/06 00:02:29;;;;;;;0.20;0.20;;;;;;;1.26;72.52;99649.68;1791298;80;21150;-42
2021/04/06 00:04:59;;;;;;;0.10;0.10;;;;;;;1.24;72.66;99650.44;1740041;80;21429;-43
2021/04/06 00:07:26;;;;;;;0.40;0.40;;;;;;;1.23;72.85;99650.13;1791662;80;21110;-42
2021/04/06 00:09:57;;;;;;;0.20;0.20;;;;;;;1.24;72.91;99644.25;1763435;80;21446;-42
2021/04/06 00:12:26;;;;;;;0.10;0.10;;;;;;;1.24;72.95;99640.20;1740236;80;21193;-43
2021/04/06 00:14:55;;;;;;;0.10;0.10;;;;;;;1.25;73.10;99644.52;1791361;80;21106;-42
2021/04/06 00:17:23;;;;;;;0.00;0.00;;;;;;;1.25;73.24;99638.61;1791228;80;21506;-43
2021/04/06 00:19:51;;;;;;;0.40;0.40;;;;;;;1.28;73.34;99643.50;1764969;80;21123;-42
2021/04/06 00:22:19;;;;;;;0.47;0.47;;;;;;;1.31;73.35;99640.05;1763263;80;21643;-43
2021/04/06 00:24:51;;;;;;;0.10;0.10;;;;;;;1.32;73.46;99636.33;1767456;80;21577;-42
2021/04/06 00:27:22;;;;;;;0.10;0.10;;;;;;;1.32;73.66;99637.67;1741185;80;21520;-42
2021/04/06 00:29:57;;;;;;;0.10;0.10;;;;;;;1.34;73.74;99628.83;1791327;80;21141;-42
2021/04/06 00:32:26;;;;;;;0.10;0.10;;;;;;;1.36;73.73;99634.77;1763474;80;21565;-42
2021/04/06 00:35:00;;;;;;;0.20;0.20;;;;;;;1.37;73.85;99626.47;1763476;80;21136;-42
2021/04/06 00:37:28;;;;;;;0.10;0.10;;;;;;;1.38;73.92;99625.93;1770202;79;21138;-43
2021/04/06 00:40:08;;;;;;;0.13;0.13;;;;;;;1.38;74.02;99621.89;1768909;81;21434;-42
2021/04/06 00:42:35;;;;;;;0.90;0.30;;;;;;;1.37;74.19;99624.31;1739029;81;21615;-42
2021/04/06 00:45:11;;;;;;;0.33;0.33;;;;;;;1.38;74.20;99627.28;1768869;80;21118;-42
2021/04/06 00:47:39;;;;;;;0.42;0.42;;;;;;;1.36;74.33;99629.39;1737100;82;21154;-42
2021/04/06 00:50:10;;;;;;;1.65;0.72;;;;;;;1.35;74.54;99621.03;1736632;82;21115;-42
2021/04/06 00:52:45;;;;;;;;;;;;;;;1.37;74.74;99621.09;1750061;81;21189;-42
2021/04/06 00:55:18;;;;;;;0.00;0.00;;;;;;;1.40;74.79;99622.48;1768848;81;20243;-42
2021/04/06 00:57:47;;;;;;;0.45;0.45;;;;;;;1.38;74.81;99623.24;1738328;82;21138;-43
2021/04/06 01:00:24;;;;;;;0.00;0.00;;;;;;;1.34;74.92;99624.80;1768593;81;21185;-42
2021/04/06 01:03:04;;;;;;;0.10;0.10;;;;;;;1.30;75.15;99616.36;1768323;81;21146;-42
2021/04/06 01:05:37;;;;;;;0.10;0.10;;;;;;;1.28;75.22;99621.97;1768953;81;21642;-43
2021/04/06 01:08:06;;;;;;;0.47;0.47;;;;;;;1.24;75.30;99627.56;1762131;81;21480;-41
2021/04/06 01:10:34;;;;;;;0.10;0.10;;;;;;;1.21;75.49;99628.05;1769077;80;21410;-42
2021/04/06 01:13:02;;;;;;;0.25;0.25;;;;;;;1.20;75.72;99629.62;1768923;81;21537;-43
2021/04/06 01:15:29;;;;;;;0.40;0.40;;;;;;;1.19;75.91;99617.23;1768934;80;21158;-43
2021/04/06 01:17:57;;;;;;;0.20;0.20;;;;;;;1.19;76.10;99620.73;1714752;81;21166;-43
2021/04/06 01:20:25;;;;;;;0.10;0.10;;;;;;;1.18;76.35;99620.96;1724937;81;21106;-44
2021/04/06 01:22:55;;;;;;;0.10;0.10;;;;;;;1.17;76.52;99620.69;1769077;80;21127;-42
2021/04/06 01:25:28;;;;;;;1.17;1.17;;;;;;;1.15;76.65;99624.94;1740918;81;21667;-42
2021/04/06 01:28:09;;;;;;;0.10;0.10;;;;;;;1.13;76.80;99620.33;1768568;81;21549;-43
2021/04/06 01:30:45;;;;;;;0.00;0.00;;;;;;;1.11;77.05;99623.77;1767529;80;21146;-42
2021/04/06 01:33:14;;;;;;;0.20;0.20;;;;;;;1.11;77.31;99616.23;1768552;81;21533;-42
2021/04/06 01:35:57;;;;;;;0.08;0.08;;;;;;;1.11;77.40;99622.42;1768544;81;21185;-41
2021/04/06 01:38:27;;;;;;;0.17;0.17;;;;;;;1.11;77.67;99624.30;1767556;81;21142;-43
2021/04/06 01:40:55;;;;;;;0.10;0.10;;;;;;;1.10;77.78;99618.11;1768570;81;21593;-42
2021/04/06 01:43:27;;;;;;;0.10;0.10;;;;;;;1.08;77.97;99627.76;1768455;81;21138;-42
2021/04/06 01:46:18;;;;;;;0.08;0.08;;;;;;;1.07;78.14;99625.32;1768416;81;21525;-43
2021/04/06 01:48:46;;;;;;;0.08;0.08;;;;;;;1.06;78.36;99625.02;1738071;82;21169;-42
2021/04/06 01:51:15;;;;;;;9.95;1.22;;;;;;;1.04;78.67;99619.08;1708625;82;21181;-43
2021/04/06 01:53:42;;;;;;;0.00;0.00;;;;;;;1.03;78.75;99622.80;1738388;81;21170;-42
2021/04/06 01:59:13;;;;;;;0.10;0.10;;;;;;;1.02;79.21;99618.48;1875929;76;29057;-40
2021/04/06 02:01:41;;;;;;;0.10;0.10;;;;;;;0.95;79.33;99621.30;1839108;78;21206;-41
2021/04/06 02:04:10;;;;;;;0.45;0.45;;;;;;;0.92;79.56;99618.28;1830463;77;21143;-41
2021/04/06 02:06:39;;;;;;;0.13;0.13;;;;;;;0.89;79.73;99612.84;1777066;80;21485;-41
2021/04/06 02:09:09;;;;;;;0.10;0.10;;;;;;;0.87;80.07;99618.98;1768874;81;21521;-41
2021/04/06 02:11:38;;;;;;;0.30;0.30;;;;;;;0.85;80.24;99611.14;1768970;81;22008;-41
2021/04/06 02:14:11;;;;;;;0.53;0.53;;;;;;;0.86;80.62;99611.41;1768921;81;21115;-42
2021/04/06 02:16:49;;;;;;;0.23;0.23;;;;;;;0.84;80.83;99612.20;1768994;81;21210;-42
2021/04/06 02:19:31;;;;;;;0.10;0.10;;;;;;;0.82;81.19;99604.89;1768931;81;21133;-42
2021/04/06 02:22:02;;;;;;;0.15;0.15;;;;;;;0.83;81.39;99607.05;1769723;80;21145;-42
2021/04/06 02:24:45;;;;;;;0.42;0.42;;;;;;;0.82;81.79;99608.92;1768950;81;21142;-42
2021/04/06 02:27:30;;;;;;;0.25;0.17;;;;;;;0.82;81.92;99603.55;1763598;81;21131;-41
2021/04/06 02:30:03;;;;;;;0.05;0.05;;;;;;;0.82;82.34;99606.23;1763243;79;21166;-42
2021/04/06 02:32:33;;;;;;;0.65;0.65;;;;;;;0.82;82.54;99608.12;1762674;81;21576;-42
2021/04/06 02:35:07;;;;;;;0.10;0.10;;;;;;;0.81;82.80;99607.27;1762619;81;21569;-42
2021/04/06 02:37:37;;;;;;;0.10;0.10;;;;;;;0.82;83.05;99606.23;1763702;80;21114;-42
2021/04/06 02:40:07;;;;;;;0.10;0.10;;;;;;;0.82;83.16;99613.49;1763775;81;21115;-42
2021/04/06 02:42:45;;;;;;;0.80;0.80;;;;;;;0.79;83.37;99605.88;1763791;81;21177;-42
2021/04/06 02:45:19;;;;;;;0.17;0.17;;;;;;;0.76;83.56;99605.81;1763480;81;21153;-42
2021/04/06 02:48:05;;;;;;;0.10;0.10;;;;;;;0.75;83.92;99606.88;1731246;81;21616;-42
2021/04/06 02:50:33;;;;;;;0.17;0.17;;;;;;;0.74;84.10;99616.02;1763807;81;21095;-43
2021/04/06 02:53:09;;;;;;;0.20;0.20;;;;;;;0.71;84.22;99609.73;1763910;81;21812;-42
2021/04/06 02:55:38;;;;;;;0.20;0.20;;;;;;;0.69;84.39;99613.19;1764144;79;21127;-43
2021/04/06 02:58:13;;;;;;;0.13;0.13;;;;;;;0.64;84.49;99606.36;1731591;81;21007;-42
2021/04/06 03:00:41;;;;;;;0.20;0.20;;;;;;;0.60;84.67;99610.58;1780122;79;21162;-43
2021/04/06 03:03:25;;;;;;;0.28;0.28;;;;;;;0.55;84.90;99605.91;1795125;79;21123;-43
2021/04/06 03:06:03;;;;;;;0.00;0.00;;;;;;;0.52;85.08;99602.85;1815450;78;21158;-43
2021/04/06 03:08:31;;;;;;;0.10;0.10;;;;;;;0.48;85.42;99594.45;1787961;79;21229;-43
2021/04/06 03:10:58;;;;;;;0.45;0.45;;;;;;;0.47;85.70;99602.73;1819947;78;21123;-43
2021/04/06 03:13:27;;;;;;;3.37;0.65;;;;;;;0.43;85.98;99597.83;1757727;80;21134;-43
2021/04/06 03:15:56;;;;;;;0.10;0.10;;;;;;;0.43;86.51;99599.71;1732285;80;20987;-43
2021/04/06 03:18:34;;;;;;;0.10;0.10;;;;;;;0.45;86.79;99596.80;1787523;80;21196;-43
2021/04/06 03:21:03;;;;;;;0.10;0.10;;;;;;;0.45;86.92;99604.86;1787766;80;21144;-42
2021/04/06 03:23:31;;;;;;;0.00;0.00;;;;;;;0.43;87.04;99607.24;1787595;80;21233;-43
2021/04/06 03:26:00;;;;;;;0.40;0.40;;;;;;;0.41;87.29;99594.55;1787671;80;21135;-43
2021/04/06 03:28:33;;;;;;;0.47;0.47;;;;;;;0.42;87.58;99600.74;1758410;78;21645;-42
2021/04/06 03:31:12;;;;;;;0.30;0.30;;;;;;;0.41;87.75;99600.47;1787698;80;21099;-43
2021/04/06 03:33:42;;;;;;;0.08;0.08;;;;;;;0.41;88.08;99602.62;1819883;78;21161;-42
2021/04/06 03:36:27;;;;;;;0.10;0.10;;;;;;;0.43;88.41;99609.93;1787579;80;21383;-43
2021/04/06 03:38:57;;;;;;;0.10;0.10;;;;;;;0.45;88.59;99607.55;1785879;80;21182;-43
2021/04/06 03:41:27;;;;;;;0.20;0.20;;;;;;;0.48;88.87;99616.48;1820034;78;21111;-42
2021/04/06 03:44:11;;;;;;;0.80;0.42;;;;;;;0.50;89.00;99619.77;1787704;80;21114;-43
2021/04/06 03:46:41;;;;;;;0.20;0.20;;;;;;;0.52;89.11;99616.30;1781805;80;21154;-43
2021/04/06 03:49:24;;;;;;;0.28;0.28;;;;;;;0.56;89.29;99621.50;1786137;80;21165;-44
2021/04/06 03:52:08;;;;;;;4.70;0.85;;;;;;;0.57;89.44;99617.25;1814728;79;21123;-44
2021/04/06 03:54:45;;;;;;;0.10;0.10;;;;;;;0.63;89.79;99620.86;1814717;78;21099;-43
2021/04/06 04:00:08;;;;;;;0.10;0.10;;;;;;;0.76;90.33;99625.98;1811115;78;21146;-43
2021/04/06 04:02:36;;;;;;;0.23;0.23;;;;;;;0.86;90.42;99626.74;1761111;80;21172;-44
2021/04/06 04:05:04;;;;;;;0.40;0.40;;;;;;;0.95;90.49;99625.87;1787592;80;21125;-43
2021/04/06 04:07:35;;;;;;;0.05;0.05;;;;;;;1.01;90.50;99628.94;1754749;81;21176;-42
2021/04/06 04:10:11;;;;;;;0.25;0.25;;;;;;;1.08;90.47;99632.33;1787673;80;21405;-42
2021/04/06 04:12:39;;;;;;;0.20;0.20;;;;;;;1.12;90.47;99636.19;1754738;81;21167;-43
2021/04/06 04:15:09;;;;;;;0.10;0.10;;;;;;;1.18;90.57;99641.95;1787590;80;21102;-43
2021/04/06 04:17:36;;;;;;;0.20;0.20;;;;;;;1.23;90.67;99636.67;1754743;81;21976;-43
2021/04/06 04:20:10;;;;;;;0.68;0.08;;;;;;;1.31;90.74;99630.63;1766689;78;21150;-43
2021/04/06 04:22:38;;;;;;;0.37;0.37;;;;;;;1.38;90.74;99629.97;1787680;78;21111;-43
2021/04/06 04:25:08;;;;;;;0.60;0.25;;;;;;;1.45;90.83;99626.08;1819888;78;21118;-43
2021/04/06 04:27:37;;;;;;;0.10;0.10;;;;;;;1.54;90.82;99621.14;1820002;78;21158;-43
2021/04/06 04:30:07;;;;;;;0.10;0.10;;;;;;;1.64;90.95;99630.77;1819909;78;21134;-44
2021/04/06 04:32:36;;;;;;;1.95;0.30;;;;;;;1.75;90.86;99619.63;1787391;80;21114;-44
2021/04/06 04:35:05;;;;;;;0.20;0.20;;;;;;;1.87;90.86;99620.94;1820090;78;21410;-42
2021/04/06 04:37:32;;;;;;;0.20;0.20;;;;;;;2.00;90.86;99616.57;1769981;80;21242;-43
2021/04/06 04:40:03;;;;;;;0.25;0.25;;;;;;;2.13;90.71;99612.23;1787559;80;21178;-44
2021/04/06 04:42:32;;;;;;;0.20;0.20;;;;;;;2.26;90.50;99611.63;1787536;80;21661;-44
2021/04/06 04:45:00;;;;;;;0.75;0.62;;;;;;;2.38;90.35;99616.41;1787615;80;21190;-44
2021/04/06 04:47:27;;;;;;;0.50;0.50;;;;;;;2.49;90.15;99620.87;1785365;79;21108;-43
2021/04/06 04:49:55;;;;;;;0.20;0.20;;;;;;;2.63;89.93;99611.11;1782700;80;21136;-42
2021/04/06 04:52:22;;;;;;;0.10;0.10;;;;;;;2.74;89.54;99609.64;1786214;79;21592;-44
2021/04/06 04:54:50;;;;;;;0.68;0.68;;;;;;;2.89;89.34;99606.88;1807637;79;21138;-44
2021/04/06 04:57:17;;;;;;;0.20;0.20;;;;;;;3.00;88.79;99600.02;1805451;79;21107;-44
2021/04/06 04:59:45;;;;;;;0.10;0.10;;;;;;;3.10;88.40;99609.33;1801819;79;21142;-43
2021/04/06 05:02:12;;;;;;;2.20;0.85;;;;;;;3.18;88.22;99608.34;1791018;79;21162;-43
2021/04/06 05:04:40;;;;;;;0.28;0.28;;;;;;;3.30;87.94;99611.45;1779094;80;21163;-46
2021/04/06 05:07:08;;;;;;;0.78;0.78;;;;;;;3.46;87.77;99610.55;1760435;81;21146;-44
2021/04/06 05:09:35;;;;;;;0.60;0.25;;;;;;;3.64;87.34;99615.62;1762057;80;21139;-43
2021/04/06 05:12:03;;;;;;;0.10;0.10;;;;;;;3.80;86.81;99616.59;1777695;80;21158;-42
2021/04/06 05:14:31;;;;;;;0.10;0.10;;;;;;;3.96;86.33;99605.41;1770215;79;21080;-44
2021/04/06 05:16:59;;;;;;;0.93;0.93;;;;;;;4.12;85.93;99598.78;1764823;80;21690;-42
2021/04/06 05:19:27;;;;;;;0.55;0.42;;;;;;;4.28;85.27;99593.23;1760368;79;21447;-42
2021/04/06 05:21:54;;;;;;;0.40;0.13;;;;;;;4.42;84.28;99593.59;1761490;80;21129;-42
2021/04/06 05:24:22;;;;;;;0.20;0.20;;;;;;;4.53;83.59;99597.20;1760494;79;21209;-43
2021/04/06 05:26:49;;;;;;;1.27;0.23;;;;;;;4.65;83.08;99591.58;1760491;81;21722;-43
2021/04/06 05:29:17;;;;;;;2.45;0.37;;;;;;;4.77;82.63;99585.97;1780752;79;21134;-43
2021/04/06 05:31:45;;;;;;;0.10;0.10;;;;;;;4.88;82.13;99597.14;1771858;80;21221;-42
2021/04/06 05:34:12;;;;;;;1.35;0.30;;;;;;;4.98;81.27;99601.26;1776046;80;21183;-43
2021/04/06 05:36:40;;;;;;;0.88;0.47;;;;;;;5.00;80.82;99590.98;1776235;80;21778;-42
2021/04/06 05:39:08;;;;;;;0.00;0.00;;;;;;;5.04;80.41;99598.03;1776295;80;21163;-43
2021/04/06 05:41:46;;;;;;;0.37;0.37;;;;;;;5.09;80.15;99593.44;1776389;80;21167;-43
2021/04/06 05:44:15;;;;;;;0.62;0.62;;;;;;;5.15;79.99;99592.41;1776066;80;21127;-44
2021/04/06 05:46:47;;;;;;;0.25;0.25;;;;;;;5.24;79.67;99581.05;1791549;80;21122;-43
2021/04/06 05:49:20;;;;;;;0.40;0.40;;;;;;;5.36;79.45;99588.41;1791998;80;21114;-42
2021/04/06 05:51:47;;;;;;;;;;;;;;;5.51;79.07;99580.31;1794458;80;21581;-43
2021/04/06 05:54:16;;;;;;;0.35;0.35;;;;;;;5.70;78.46;99582.00;1791605;80;20273;-43
2021/04/06 05:56:43;;;;;;;1.45;0.57;;;;;;;5.85;78.12;99573.08;1791743;80;21143;-43
2021/04/06 05:59:11;;;;;;;0.23;0.23;;;;;;;6.03;77.70;99569.88;1778270;80;21434;-43
2021/04/06 06:01:43;;;;;;;0.00;0.00;;;;;;;6.21;77.29;99575.85;1763501;79;21174;-43
2021/04/06 06:04:13;;;;;;;0.30;0.30;;;;;;;6.38;76.50;99580.97;1781556;80;21557;-43
2021/04/06 06:06:40;;;;;;;0.47;0.47;;;;;;;6.55;76.24;99572.54;1781363;80;21174;-43
2021/04/06 06:09:10;;;;;;;0.05;0.05;;;;;;;6.71;75.32;99570.08;1781309;80;21133;-43
2021/04/06 06:11:58;;;;;;;0.33;0.33;;;;;;;6.86;74.75;99570.58;1781392;80;22006;-43
2021/04/06 06:14:36;;;;;;;0.40;0.40;;;;;;;6.99;74.33;99588.19;1781348;80;21155;-44
2021/04/06 06:17:17;;;;;;;0.28;0.28;;;;;;;7.14;73.45;99577.27;1781388;80;21199;-44
2021/04/06 06:19:54;;;;;;;0.65;0.47;;;;;;;7.33;73.28;99575.55;1767486;80;21115;-43
2021/04/06 06:22:31;;;;;;;0.20;0.20;;;;;;;7.56;71.98;99570.55;1758802;81;21135;-43
2021/04/06 06:25:09;;;;;;;2.37;1.02;;;;;;;7.78;71.50;99570.69;1758825;80;21102;-44
2021/04/06 06:27:43;;;;;;;1.95;0.40;;;;;;;7.97;71.30;99572.45;1758816;81;21127;-43
2021/04/06 06:30:33;;;;;;;0.53;0.53;;;;;;;8.22;70.64;99576.63;1770870;80;21134;-43
2021/04/06 06:36:02;;;;;;;0.20;0.20;;;;;;;8.76;68.07;99575.05;1886155;76;22256;-41
2021/04/06 06:38:37;;;;;;;0.53;0.53;;;;;;;8.85;66.93;99583.39;1853417;77;21183;-41
2021/04/06 06:41:13;;;;;;;0.42;0.33;;;;;;;8.91;66.04;99591.78;1821916;78;21134;-41
2021/04/06 06:43:43;;;;;;;0.72;0.72;;;;;;;8.95;65.77;99596.93;1791241;80;21640;-42
2021/04/06 06:46:30;;;;;;;0.15;0.15;;;;;;;9.03;65.31;99588.66;1785613;80;21123;-42
2021/04/06 06:49:06;;;;;;;0.45;0.30;;;;;;;9.16;64.69;99600.78;1780386;80;21433;-41
2021/04/06 06:51:36;;;;;;;0.25;0.25;;;;;;;9.34;65.02;99606.81;1783215;80;21153;-41
2021/04/06 06:54:04;;;;;;;0.25;0.25;;;;;;;9.53;64.42;99592.41;1787872;80;21169;-43
2021/04/06 06:56:34;;;;;;;0.37;0.37;;;;;;;9.67;63.84;99596.05;1788161;80;21145;-42
2021/04/06 06:59:02;;;;;;;0.40;0.40;;;;;;;9.78;63.04;99601.60;1788253;80;22015;-43
2021/04/06 07:01:32;;;;;;;0.53;0.53;;;;;;;9.85;62.59;99611.59;1787314;80;21158;-42
2021/04/06 07:04:10;;;;;;;0.45;0.33;;;;;;;9.93;62.50;99621.59;1753772;81;21270;-43
2021/04/06 07:06:40;;;;;;;0.30;0.30;;;;;;;10.02;62.11;99617.91;1768430;80;21134;-43
2021/04/06 07:09:26;;;;;;;0.75;0.45;;;;;;;10.09;61.23;99610.72;1787968;80;21150;-43
2021/04/06 07:12:00;;;;;;;0.40;0.40;;;;;;;10.13;60.91;99613.09;1757265;81;21197;-42
2021/04/06 07:14:29;;;;;;;1.90;0.47;;;;;;;10.25;61.31;99620.83;1782958;80;21185;-43
2021/04/06 07:16:59;;;;;;;0.33;0.33;;;;;;;10.42;61.10;99620.33;1761260;80;21182;-41
2021/04/06 07:19:27;;;;;;;0.62;0.62;;;;;;;10.66;60.86;99617.47;1772347;79;21458;-43
2021/04/06 07:21:57;;;;;;;0.72;0.55;;;;;;;10.88;59.58;99612.67;1754073;80;20948;-42
2021/04/06 07:24:28;;;;;;;0.35;0.35;;;;;;;11.01;59.35;99610.53;1785428;80;21549;-42
2021/04/06 07:26:57;;;;;;;0.72;0.70;;;;;;;11.14;58.62;99615.19;1779195;80;21130;-42
2021/04/06 07:29:25;;;;;;;0.10;0.10;;;;;;;11.24;58.25;99613.37;1764044;80;21110;-44
2021/04/06 07:31:53;;;;;;;0.20;0.20;;;;;;;11.30;58.13;99605.30;1724788;81;21181;-43
2021/04/06 07:34:20;;;;;;;3.00;1.05;;;;;;;11.39;57.57;99613.05;1787132;79;21153;-43
2021/04/06 07:36:49;;;;;;;0.30;0.30;;;;;;;11.41;57.33;99608.09;1783315;79;21182;-42
2021/04/06 07:39:16;;;;;;;0.17;0.17;;;;;;;11.45;57.33;99605.55;1739794;81;21579;-42
2021/04/06 07:41:46;;;;;;;0.82;0.82;;;;;;;11.47;56.95;99610.95;1758410;80;21147;-42
2021/04/06 07:44:15;;;;;;;1.37;0.55;;;;;;;11.46;56.53;99605.25;1788823;79;21623;-42
2021/04/06 07:46:46;;;;;;;0.30;0.30;;;;;;;11.46;56.65;99607.18;1774738;79;21146;-42
2021/04/06 07:49:22;;;;;;;0.20;0.20;;;;;;;11.48;56.23;99607.69;1788639;79;21681;-43
2021/04/06 07:51:53;;;;;;;0.10;0.10;;;;;;;11.46;55.90;99609.92;1787454;79;21445;-43
2021/04/06 07:54:25;;;;;;;0.17;0.17;;;;;;;11.42;56.16;99613.80;1794894;79;21133;-44
2021/04/06 07:57:03;;;;;;;1.27;0.65;;;;;;;11.41;56.07;99617.10;1795825;79;21168;-42
2021/04/06 07:59:36;;;;;;;1.07;0.93;;;;;;;11.44;56.46;99609.41;1778502;79;21150;-42
2021/04/06 08:02:09;;;;;;;0.70;0.30;;;;;;;11.49;56.16;99611.47;1781665;79;21122;-42
2021/04/06 08:04:48;;;;;;;0.30;0.30;;;;;;;11.54;56.12;99618.77;1775866;79;21549;-42
2021/04/06 08:07:24;;;;;;;0.62;0.62;;;;;;;11.56;55.85;99600.13;1790805;79;21137;-42
2021/04/06 08:10:02;;;;;;;0.45;0.37;;;;;;;11.59;56.02;99611.25;1795995;79;21165;-43
2021/04/06 08:12:34;;;;;;;0.55;0.55;;;;;;;11.55;56.79;99610.27;1794168;79;21498;-42
2021/04/06 08:15:09;;;;;;;2.65;0.68;;;;;;;11.59;57.30;99598.13;1787161;79;21142;-43
2021/04/06 08:17:41;;;;;;;0.42;0.42;;;;;;;11.74;57.90;99599.72;1770719;79;21114;-43
2021/04/06 08:20:36;;;;;;;0.37;0.37;;;;;;;11.93;56.35;99604.52;1766518;80;21110;-42
2021/04/06 08:23:16;;;;;;;0.45;0.45;;;;;;;12.07;56.50;99604.49;1764709;81;21552;-43
2021/04/06 08:25:47;;;;;;;2.00;1.35;;;;;;;12.30;55.84;99605.30;1764245;81;21172;-43
2021/04/06 08:28:31;;;;;;;0.20;0.20;;;;;;;12.39;55.17;99604.81;1795858;79;21093;-42
2021/04/06 08:31:26;;;;;;;1.10;0.85;;;;;;;12.47;54.58;99595.83;1740606;81;21102;-42
2021/04/06 08:33:54;;;;;;;0.62;0.62;;;;;;;12.56;54.60;99601.38;1740676;82;21138;-43
2021/04/06 08:36:27;;;;;;;3.00;0.55;;;;;;;12.62;53.61;99594.63;1751616;80;21543;-43
2021/04/06 08:38:57;;;;;;;1.50;1.40;;;;;;;12.63;53.99;99598.97;1769011;80;21609;-43
2021/04/06 08:41:32;;;;;;;0.82;0.82;;;;;;;12.77;53.47;99595.36;1770721;80;21102;-42
2021/04/06 08:44:07;;;;;;;0.50;0.50;;;;;;;12.92;53.29;99585.34;1787614;80;21491;-43
2021/04/06 08:46:42;;;;;;;3.10;0.50;;;;;;;13.06;52.83;99577.02;1782350;80;21134;-43
2021/04/06 08:49:23;;;;;;;1.20;0.53;;;;;;;13.15;53.08;99588.81;1773011;80;21133;-43
2021/04/06 08:51:59;;;;;;;0.50;0.25;;;;;;;13.33;52.01;99580.92;1774719;80;21192;-43
2021/04/06 08:54:30;;;;;;;1.17;0.62;;;;;;;13.43;51.42;99580.39;1751520;81;21102;-43
2021/04/06 08:57:03;;;;;;;0.10;0.10;;;;;;;13.55;51.38;99581.95;1751429;81;21135;-42
2021/04/06 08:59:39;;;;;;;0.30;0.28;;;;;;;13.73;51.14;99580.83;1751502;81;21121;-43
2021/04/06 09:02:14;;;;;;;0.20;0.20;;;;;;;13.84;50.08;99575.02;1764219;79;21588;-42
2021/04/06 09:04:45;;;;;;;0.57;0.50;;;;;;;13.84;49.65;99588.75;1782676;80;21233;-43
2021/04/06 09:07:22;;;;;;;1.32;0.60;;;;;;;13.85;49.39;99576.66;1782814;80;21119;-43
2021/04/06 09:10:00;;;;;;;0.20;0.20;;;;;;;13.90;49.30;99576.50;1736079;81;21113;-43
2021/04/06 09:12:27;;;;;;;0.35;0.35;;;;;;;13.99;49.47;99582.78;1765199;80;21100;-43
2021/04/06 09:14:55;;;;;;;0.45;0.45;;;;;;;14.03;48.44;99583.76;1755192;80;21434;-42
2021/04/06 09:17:32;;;;;;;0.75;0.72;;;;;;;14.02;47.68;99576.66;1740965;80;21148;-43
2021/04/06 09:20:15;;;;;;;0.60;0.60;;;;;;;14.03;47.48;99576.09;1763112;79;21441;-42
2021/04/06 09:22:46;;;;;;;0.40;0.40;;;;;;;14.03;47.18;99570.02;1787207;80;21104;-42
2021/04/06 09:25:26;;;;;;;0.17;0.17;;;;;;;14.08;47.08;99580.84;1787115;80;21168;-42
2021/04/06 09:28:03;;;;;;;0.25;0.25;;;;;;;14.11;46.07;99582.94;1767601;80;21189;-43
2021/04/06 09:30:35;;;;;;;0.50;0.50;;;;;;;14.16;46.30;99571.78;1770787;80;21189;-42
2021/04/06 09:33:14;;;;;;;1.02;0.78;;;;;;;14.20;46.73;99571.38;1786872;80;21540;-42
2021/04/06 09:35:48;;;;;;;0.15;0.10;;;;;;;14.29;45.88;99557.65;1791226;79;21152;-43
2021/04/06 09:38:18;;;;;;;0.25;0.05;;;;;;;14.31;45.28;99558.11;1777566;80;21119;-43
2021/04/06 09:40:46;;;;;;;1.47;0.62;;;;;;;14.37;45.68;99566.44;1742905;81;21631;-43
2021/04/06 09:43:14;;;;;;;0.20;0.20;;;;;;;14.44;45.23;99561.82;1727777;81;21467;-43
2021/04/06 09:45:41;;;;;;;0.45;0.45;;;;;;;14.48;45.90;99557.84;1767430;81;21541;-42
2021/04/06 09:48:13;;;;;;;0.45;0.45;;;;;;;14.54;45.02;99565.63;1766166;81;21138;-42
2021/04/06 09:50:57;;;;;;;0.20;0.20;;;;;;;14.46;44.84;99558.16;1767720;81;21157;-42
2021/04/06 09:53:24;;;;;;;0.60;0.40;;;;;;;14.28;45.85;99556.02;1766459;81;21180;-43
2021/04/06 09:55:57;;;;;;;0.15;0.15;;;;;;;14.20;45.49;99555.47;1790192;80;21012;-42
2021/04/06 09:58:26;;;;;;;0.35;0.33;;;;;;;14.26;45.82;99571.21;1792916;79;21116;-43
2021/04/06 10:00:53;;;;;;;0.65;0.65;;;;;;;14.37;45.45;99571.12;1793237;79;21450;-43
2021/04/06 10:03:24;;;;;;;0.45;0.45;;;;;;;14.51;45.02;99564.84;1733305;80;21125;-44
2021/04/06 10:06:08;;;;;;;0.15;0.15;;;;;;;14.61;44.96;99556.31;1793093;80;21173;-42
2021/04/06 10:08:36;;;;;;;0.20;0.17;;;;;;;14.71;44.57;99555.69;1732660;81;21139;-43
2021/04/06 10:11:03;;;;;;;0.42;0.42;;;;;;;14.73;43.86;99550.10;1753220;81;21203;-43
2021/04/06 10:13:35;;;;;;;0.37;0.20;;;;;;;14.65;43.58;99546.83;1756982;80;21265;-42
2021/04/06 10:16:16;;;;;;;0.70;0.35;;;;;;;14.52;43.76;99552.73;1793619;80;21421;-43
2021/04/06 10:18:46;;;;;;;1.80;0.70;;;;;;;14.50;43.61;99550.08;1792753;80;21162;-42
2021/04/06 10:21:20;;;;;;;0.10;0.10;;;;;;;14.61;43.49;99545.31;1760912;81;21232;-42
2021/04/06 10:23:48;;;;;;;0.28;0.28;;;;;;;14.75;43.08;99547.03;1759938;81;21447;-42
2021/04/06 10:26:22;;;;;;;1.45;0.57;;;;;;;14.73;42.63;99542.42;1763167;80;21000;-43
2021/04/06 10:29:09;;;;;;;0.05;0.05;;;;;;;14.67;42.29;99536.88;1778920;80;21138;-42
2021/04/06 10:31:50;;;;;;;0.42;0.42;;;;;;;14.50;41.90;99546.75;1761856;80;21174;-43
2021/04/06 10:34:17;;;;;;;1.40;0.75;;;;;;;14.35;42.05;99540.41;1762840;80;20972;-42
2021/04/06 10:36:59;;;;;;;0.30;0.30;;;;;;;14.27;42.25;99535.17;1755839;81;21174;-42
2021/04/06 10:39:36;;;;;;;0.60;0.47;;;;;;;14.29;41.13;99527.42;1766460;79;21557;-42
2021/04/06 10:42:08;;;;;;;0.20;0.10;;;;;;;14.22;41.68;99529.02;1775307;80;21644;-42
2021/04/06 10:44:36;;;;;;;0.60;0.42;;;;;;;14.12;42.07;99527.42;1779113;80;21158;-42
2021/04/06 10:47:03;;;;;;;0.50;0.23;;;;;;;14.08;42.61;99528.65;1729358;80;21427;-42
2021/04/06 10:49:31;;;;;;;0.47;0.45;;;;;;;14.14;42.71;99507.30;1781921;80;21126;-43
2021/04/06 10:52:01;;;;;;;0.10;0.10;;;;;;;14.13;42.20;99510.63;1764826;80;21114;-44
2021/04/06 10:54:29;;;;;;;0.10;0.10;;;;;;;14.11;42.31;99506.02;1754910;81;21380;-42
2021/04/06 10:56:58;;;;;;;0.30;0.30;;;;;;;14.22;42.40;99502.38;1787718;80;21433;-42
2021/04/06 10:59:34;;;;;;;0.42;0.30;;;;;;;14.39;41.97;99499.59;1783356;80;21127;-42
2021/04/06 11:02:02;;;;;;;0.40;0.40;;;;;;;14.58;40.73;99498.41;1774237;80;21184;-43
2021/04/06 11:04:32;;;;;;;0.20;0.20;;;;;;;14.67;40.86;99488.77;1752764;81;21092;-42
2021/04/06 11:07:05;;;;;;;2.72;1.12;;;;;;;14.73;40.56;99487.43;1752121;81;21156;-42
2021/04/06 11:09:44;;;;;;;0.00;0.00;;;;;;;14.79;40.18;99483.37;1777569;80;21162;-42
2021/04/06 11:12:14;;;;;;;0.20;0.13;;;;;;;14.82;40.37;99488.20;1778823;80;21170;-43
2021/04/06 11:14:43;;;;;;;0.35;0.35;;;;;;;14.86;40.66;99483.66;1778879;80;21187;-43
2021/04/06 11:17:12;;;;;;;0.00;0.00;;;;;;;14.84;40.30;99483.19;1778526;80;21135;-42
2021/04/06 11:19:44;;;;;;;0.10;0.10;;;;;;;14.82;39.67;99481.33;1778305;80;21143;-42
2021/04/06 11:22:16;;;;;;;0.10;0.10;;;;;;;14.79;39.94;99486.12;1778516;80;21695;-42
2021/04/06 11:24:46;;;;;;;0.17;0.17;;;;;;;14.74;40.13;99473.94;1780033;80;21134;-42
2021/04/06 11:27:14;;;;;;;0.35;0.20;;;;;;;14.64;39.76;99462.74;1731943;81;21561;-42
2021/04/06 11:29:41;;;;;;;0.53;0.30;;;;;;;14.58;39.92;99466.22;1787090;79;21088;-44
2021/04/06 11:32:12;;;;;;;0.10;0.10;;;;;;;14.54;40.06;99474.08;1783058;80;21442;-42
2021/04/06 11:34:39;;;;;;;0.10;0.10;;;;;;;14.48;40.14;99461.06;1780642;80;21155;-43
2021/04/06 11:37:09;;;;;;;0.40;0.40;;;;;;;14.40;39.88;99467.41;1766317;80;21155;-43
2021/04/06 11:39:40;;;;;;;0.00;0.00;;;;;;;14.28;40.11;99465.91;1758962;80;21489;-42
2021/04/06 11:42:09;;;;;;;0.60;0.60;;;;;;;14.20;41.04;99466.98;1747550;81;21418;-42
2021/04/06 11:44:38;;;;;;;0.60;0.53;;;;;;;14.39;41.57;99464.40;1803021;78;21101;-43
2021/04/06 11:47:06;;;;;;;0.10;0.10;;;;;;;14.84;40.67;99454.31;1752337;80;21146;-43
2021/04/06 11:49:33;;;;;;;0.25;0.25;;;;;;;15.37;39.54;99454.19;1774106;80;21190;-42
2021/04/06 11:52:01;;;;;;;0.10;0.10;;;;;;;15.62;39.12;99454.31;1748696;81;21168;-42
2021/04/06 11:54:29;;;;;;;0.40;0.30;;;;;;;15.61;38.68;99445.25;1757127;79;21156;-42
2021/04/06 11:56:58;;;;;;;0.20;0.20;;;;;;;15.42;38.09;99449.85;1778223;80;21548;-42
2021/04/06 11:59:29;;;;;;;0.15;0.15;;;;;;;15.14;38.59;99443.28;1784843;80;21588;-43
2021/04/06 12:01:56;;;;;;;0.10;0.10;;;;;;;14.99;39.31;99446.84;1735268;81;21183;-42
2021/04/06 12:04:24;;;;;;;0.30;0.28;;;;;;;14.93;39.69;99442.66;1760940;80;21201;-41
2021/04/06 12:06:52;;;;;;;0.15;0.15;;;;;;;14.91;39.67;99441.39;1767023;80;21134;-42
2021/04/06 12:09:19;;;;;;;0.00;0.00;;;;;;;14.86;38.60;99434.16;1780165;80;21149;-44